sensor_id;sensor_type;location;lat;lon;timestamp;P1;durP1;ratioP1;P2;durP2;ratioP2
16979;SDS011;42288;52.182;21.156;2022-07-30T00:00:55;4.03;;;1.20;;
16979;SDS011;42288;52.182;21.156;2022-07-30T00:03:21;3.33;;;1.23;;
16979;SDS011;42288;52.182;21.156;2022-07-30T00:05:46;3.57;;;1.20;;
16979;SDS011;42288;52.182;21.156;2022-07-30T00:08:12;1.80;;;1.20;;
16979;SDS011;42288;52.182;21.156;2022-07-30T00:10:38;5.03;;;1.33;;
16979;SDS011;42288;52.182;21.156;2022-07-30T00:13:04;4.40;;;1.30;;
16979;SDS011;42288;52.182;21.156;2022-07-30T00:15:30;3.77;;;1.50;;
16979;SDS011;42288;52.182;21.156;2022-07-30T00:17:55;5.80;;;1.20;;
16979;SDS011;42288;52.182;21.156;2022-07-30T00:20:21;5.37;;;1.20;;
16979;SDS011;42288;52.182;21.156;2022-07-30T00:22:46;2.90;;;1.30;;
16979;SDS011;42288;52.182;21.156;2022-07-30T00:25:12;3.33;;;1.20;;
16979;SDS011;42288;52.182;21.156;2022-07-30T00:27:38;4.30;;;1.60;;
16979;SDS011;42288;52.182;21.156;2022-07-30T00:30:04;6.90;;;1.40;;
16979;SDS011;42288;52.182;21.156;2022-07-30T00:32:30;5.07;;;1.20;;
16979;SDS011;42288;52.182;21.156;2022-07-30T00:34:56;3.60;;;1.20;;
16979;SDS011;42288;52.182;21.156;2022-07-30T00:37:21;3.07;;;1.20;;
16979;SDS011;42288;52.182;21.156;2022-07-30T00:39:47;3.83;;;1.30;;
16979;SDS011;42288;52.182;21.156;2022-07-30T00:42:13;5.07;;;1.63;;
16979;SDS011;42288;52.182;21.156;2022-07-30T00:44:38;2.43;;;1.20;;
16979;SDS011;42288;52.182;21.156;2022-07-30T00:47:05;2.67;;;1.40;;
16979;SDS011;42288;52.182;21.156;2022-07-30T00:49:31;6.30;;;1.30;;
16979;SDS011;42288;52.182;21.156;2022-07-30T00:51:56;4.97;;;1.40;;
16979;SDS011;42288;52.182;21.156;2022-07-30T00:54:22;6.57;;;1.47;;
16979;SDS011;42288;52.182;21.156;2022-07-30T00:56:48;5.57;;;1.53;;
16979;SDS011;42288;52.182;21.156;2022-07-30T00:59:14;3.17;;;1.20;;
16979;SDS011;42288;52.182;21.156;2022-07-30T01:01:40;3.67;;;1.40;;
16979;SDS011;42288;52.182;21.156;2022-07-30T01:04:05;3.50;;;1.10;;
16979;SDS011;42288;52.182;21.156;2022-07-30T01:06:38;3.47;;;1.27;;
16979;SDS011;42288;52.182;21.156;2022-07-30T01:09:04;6.20;;;1.50;;
16979;SDS011;42288;52.182;21.156;2022-07-30T01:11:32;4.10;;;1.50;;
16979;SDS011;42288;52.182;21.156;2022-07-30T01:14:01;5.43;;;1.20;;
16979;SDS011;42288;52.182;21.156;2022-07-30T01:16:27;4.63;;;1.30;;
16979;SDS011;42288;52.182;21.156;2022-07-30T01:18:53;2.60;;;1.23;;
16979;SDS011;42288;52.182;21.156;2022-07-30T01:21:40;2.40;;;1.10;;
16979;SDS011;42288;52.182;21.156;2022-07-30T01:24:19;4.57;;;1.60;;
16979;SDS011;42288;52.182;21.156;2022-07-30T01:26:51;3.07;;;1.40;;
16979;SDS011;42288;52.182;21.156;2022-07-30T01:29:18;4.93;;;1.20;;
16979;SDS011;42288;52.182;21.156;2022-07-30T01:31:45;3.17;;;1.40;;
16979;SDS011;42288;52.182;21.156;2022-07-30T01:34:12;3.57;;;1.67;;
16979;SDS011;42288;52.182;21.156;2022-07-30T01:36:41;5.50;;;1.70;;
16979;SDS011;42288;52.182;21.156;2022-07-30T01:39:10;14.97;;;1.53;;
16979;SDS011;42288;52.182;21.156;2022-07-30T01:41:37;3.13;;;1.40;;
16979;SDS011;42288;52.182;21.156;2022-07-30T01:44:03;3.90;;;1.30;;
16979;SDS011;42288;52.182;21.156;2022-07-30T01:46:31;4.17;;;1.40;;
16979;SDS011;42288;52.182;21.156;2022-07-30T01:48:57;4.67;;;1.40;;
16979;SDS011;42288;52.182;21.156;2022-07-30T01:51:24;6.07;;;1.40;;
16979;SDS011;42288;52.182;21.156;2022-07-30T01:53:52;4.33;;;1.40;;
16979;SDS011;42288;52.182;21.156;2022-07-30T01:56:20;3.37;;;1.50;;
16979;SDS011;42288;52.182;21.156;2022-07-30T01:58:48;5.90;;;1.33;;
16979;SDS011;42288;52.182;21.156;2022-07-30T02:01:16;3.57;;;1.40;;
16979;SDS011;42288;52.182;21.156;2022-07-30T02:03:42;3.30;;;1.47;;
16979;SDS011;42288;52.182;21.156;2022-07-30T02:06:10;5.30;;;1.40;;
16979;SDS011;42288;52.182;21.156;2022-07-30T02:08:47;3.37;;;1.30;;
16979;SDS011;42288;52.182;21.156;2022-07-30T02:11:18;4.90;;;1.40;;
16979;SDS011;42288;52.182;21.156;2022-07-30T02:14:12;4.50;;;1.67;;
16979;SDS011;42288;52.182;21.156;2022-07-30T02:16:42;5.87;;;1.30;;
16979;SDS011;42288;52.182;21.156;2022-07-30T02:19:10;5.37;;;1.37;;
16979;SDS011;42288;52.182;21.156;2022-07-30T02:21:41;8.13;;;1.43;;
16979;SDS011;42288;52.182;21.156;2022-07-30T02:24:11;5.07;;;1.80;;
16979;SDS011;42288;52.182;21.156;2022-07-30T02:26:39;8.10;;;1.53;;
16979;SDS011;42288;52.182;21.156;2022-07-30T02:29:07;5.00;;;1.50;;
16979;SDS011;42288;52.182;21.156;2022-07-30T02:31:33;4.00;;;1.20;;
16979;SDS011;42288;52.182;21.156;2022-07-30T02:34:02;3.30;;;1.53;;
16979;SDS011;42288;52.182;21.156;2022-07-30T02:36:31;4.70;;;1.40;;
16979;SDS011;42288;52.182;21.156;2022-07-30T02:38:57;3.00;;;1.50;;
16979;SDS011;42288;52.182;21.156;2022-07-30T02:41:24;7.03;;;1.60;;
16979;SDS011;42288;52.182;21.156;2022-07-30T02:43:52;3.37;;;1.43;;
16979;SDS011;42288;52.182;21.156;2022-07-30T02:46:19;4.87;;;2.07;;
16979;SDS011;42288;52.182;21.156;2022-07-30T02:48:47;5.37;;;1.23;;
16979;SDS011;42288;52.182;21.156;2022-07-30T02:51:15;2.60;;;1.27;;
16979;SDS011;42288;52.182;21.156;2022-07-30T02:53:44;7.03;;;2.00;;
16979;SDS011;42288;52.182;21.156;2022-07-30T02:56:10;3.20;;;1.40;;
16979;SDS011;42288;52.182;21.156;2022-07-30T02:58:40;2.37;;;1.60;;
16979;SDS011;42288;52.182;21.156;2022-07-30T03:01:08;6.03;;;1.30;;
16979;SDS011;42288;52.182;21.156;2022-07-30T03:03:35;2.97;;;1.60;;
16979;SDS011;42288;52.182;21.156;2022-07-30T03:06:01;4.03;;;1.40;;
16979;SDS011;42288;52.182;21.156;2022-07-30T03:08:30;3.53;;;1.40;;
16979;SDS011;42288;52.182;21.156;2022-07-30T03:10:56;3.67;;;1.50;;
16979;SDS011;42288;52.182;21.156;2022-07-30T03:13:21;1.43;;;1.27;;
16979;SDS011;42288;52.182;21.156;2022-07-30T03:15:48;2.57;;;1.20;;
16979;SDS011;42288;52.182;21.156;2022-07-30T03:18:16;2.33;;;1.40;;
16979;SDS011;42288;52.182;21.156;2022-07-30T03:20:46;2.07;;;1.27;;
16979;SDS011;42288;52.182;21.156;2022-07-30T03:23:15;5.40;;;1.50;;
16979;SDS011;42288;52.182;21.156;2022-07-30T03:25:44;2.43;;;1.30;;
16979;SDS011;42288;52.182;21.156;2022-07-30T03:28:14;5.97;;;1.60;;
16979;SDS011;42288;52.182;21.156;2022-07-30T03:30:42;2.80;;;1.43;;
16979;SDS011;42288;52.182;21.156;2022-07-30T03:33:08;4.33;;;1.40;;
16979;SDS011;42288;52.182;21.156;2022-07-30T03:35:35;2.27;;;1.63;;
16979;SDS011;42288;52.182;21.156;2022-07-30T03:38:01;7.73;;;1.47;;
16979;SDS011;42288;52.182;21.156;2022-07-30T03:40:28;6.30;;;1.50;;
16979;SDS011;42288;52.182;21.156;2022-07-30T03:42:55;5.13;;;1.47;;
16979;SDS011;42288;52.182;21.156;2022-07-30T03:45:21;2.17;;;1.30;;
16979;SDS011;42288;52.182;21.156;2022-07-30T03:47:47;4.00;;;1.30;;
16979;SDS011;42288;52.182;21.156;2022-07-30T03:50:13;2.80;;;1.70;;
16979;SDS011;42288;52.182;21.156;2022-07-30T03:52:39;2.57;;;1.20;;
16979;SDS011;42288;52.182;21.156;2022-07-30T03:55:06;3.07;;;1.47;;
16979;SDS011;42288;52.182;21.156;2022-07-30T03:57:33;1.77;;;1.20;;
16979;SDS011;42288;52.182;21.156;2022-07-30T03:59:59;4.77;;;1.50;;
16979;SDS011;42288;52.182;21.156;2022-07-30T04:02:26;1.80;;;1.30;;
16979;SDS011;42288;52.182;21.156;2022-07-30T04:04:51;2.70;;;1.50;;
16979;SDS011;42288;52.182;21.156;2022-07-30T04:07:17;2.27;;;1.33;;
16979;SDS011;42288;52.182;21.156;2022-07-30T04:09:43;4.20;;;1.40;;
16979;SDS011;42288;52.182;21.156;2022-07-30T04:12:08;3.13;;;1.60;;
16979;SDS011;42288;52.182;21.156;2022-07-30T04:14:41;3.03;;;1.40;;
16979;SDS011;42288;52.182;21.156;2022-07-30T04:17:10;1.77;;;1.30;;
16979;SDS011;42288;52.182;21.156;2022-07-30T04:19:41;4.27;;;1.37;;
16979;SDS011;42288;52.182;21.156;2022-07-30T04:22:14;3.33;;;1.70;;
16979;SDS011;42288;52.182;21.156;2022-07-30T04:24:44;2.03;;;1.30;;
16979;SDS011;42288;52.182;21.156;2022-07-30T04:27:10;2.80;;;1.13;;
16979;SDS011;42288;52.182;21.156;2022-07-30T04:29:36;3.13;;;1.70;;
16979;SDS011;42288;52.182;21.156;2022-07-30T04:32:02;2.40;;;1.40;;
16979;SDS011;42288;52.182;21.156;2022-07-30T04:34:28;3.07;;;1.30;;
16979;SDS011;42288;52.182;21.156;2022-07-30T04:36:53;4.53;;;1.53;;
16979;SDS011;42288;52.182;21.156;2022-07-30T04:39:19;3.37;;;1.27;;
16979;SDS011;42288;52.182;21.156;2022-07-30T04:41:45;4.43;;;1.87;;
16979;SDS011;42288;52.182;21.156;2022-07-30T04:44:10;2.40;;;1.23;;
16979;SDS011;42288;52.182;21.156;2022-07-30T04:46:36;5.13;;;1.63;;
16979;SDS011;42288;52.182;21.156;2022-07-30T04:49:02;1.87;;;1.53;;
16979;SDS011;42288;52.182;21.156;2022-07-30T04:51:28;2.10;;;1.40;;
16979;SDS011;42288;52.182;21.156;2022-07-30T04:53:57;4.60;;;1.30;;
16979;SDS011;42288;52.182;21.156;2022-07-30T04:56:25;3.53;;;1.60;;
16979;SDS011;42288;52.182;21.156;2022-07-30T04:58:54;5.57;;;1.60;;
16979;SDS011;42288;52.182;21.156;2022-07-30T05:01:22;3.73;;;1.40;;
16979;SDS011;42288;52.182;21.156;2022-07-30T05:03:53;9.13;;;1.80;;
16979;SDS011;42288;52.182;21.156;2022-07-30T05:06:20;3.47;;;1.37;;
16979;SDS011;42288;52.182;21.156;2022-07-30T05:08:46;2.60;;;1.30;;
16979;SDS011;42288;52.182;21.156;2022-07-30T05:11:12;2.40;;;1.40;;
16979;SDS011;42288;52.182;21.156;2022-07-30T05:13:39;2.93;;;1.40;;
16979;SDS011;42288;52.182;21.156;2022-07-30T05:16:06;3.37;;;1.30;;
16979;SDS011;42288;52.182;21.156;2022-07-30T05:18:32;4.77;;;1.47;;
16979;SDS011;42288;52.182;21.156;2022-07-30T05:20:58;3.20;;;1.50;;
16979;SDS011;42288;52.182;21.156;2022-07-30T05:23:23;2.67;;;1.43;;
16979;SDS011;42288;52.182;21.156;2022-07-30T05:25:49;2.43;;;1.37;;
16979;SDS011;42288;52.182;21.156;2022-07-30T05:28:14;5.57;;;1.37;;
16979;SDS011;42288;52.182;21.156;2022-07-30T05:30:40;5.23;;;1.57;;
16979;SDS011;42288;52.182;21.156;2022-07-30T05:33:06;3.50;;;1.70;;
16979;SDS011;42288;52.182;21.156;2022-07-30T05:35:31;4.43;;;1.60;;
16979;SDS011;42288;52.182;21.156;2022-07-30T05:37:58;2.50;;;1.30;;
16979;SDS011;42288;52.182;21.156;2022-07-30T05:40:24;4.00;;;1.33;;
16979;SDS011;42288;52.182;21.156;2022-07-30T05:42:49;6.30;;;1.43;;
16979;SDS011;42288;52.182;21.156;2022-07-30T05:45:15;3.13;;;1.27;;
16979;SDS011;42288;52.182;21.156;2022-07-30T05:47:41;4.70;;;1.50;;
16979;SDS011;42288;52.182;21.156;2022-07-30T05:50:06;4.00;;;1.60;;
16979;SDS011;42288;52.182;21.156;2022-07-30T05:52:33;4.07;;;1.67;;
16979;SDS011;42288;52.182;21.156;2022-07-30T05:54:58;2.73;;;1.30;;
16979;SDS011;42288;52.182;21.156;2022-07-30T05:57:24;3.37;;;1.47;;
16979;SDS011;42288;52.182;21.156;2022-07-30T05:59:49;5.10;;;1.77;;
16979;SDS011;42288;52.182;21.156;2022-07-30T06:02:15;3.37;;;1.40;;
16979;SDS011;42288;52.182;21.156;2022-07-30T06:04:40;3.80;;;1.50;;
16979;SDS011;42288;52.182;21.156;2022-07-30T06:07:06;3.83;;;1.43;;
16979;SDS011;42288;52.182;21.156;2022-07-30T06:09:32;5.80;;;1.70;;
16979;SDS011;42288;52.182;21.156;2022-07-30T06:11:57;4.17;;;1.30;;
16979;SDS011;42288;52.182;21.156;2022-07-30T06:14:23;2.97;;;1.53;;
16979;SDS011;42288;52.182;21.156;2022-07-30T06:16:48;3.33;;;1.50;;
16979;SDS011;42288;52.182;21.156;2022-07-30T06:19:14;4.77;;;1.40;;
16979;SDS011;42288;52.182;21.156;2022-07-30T06:21:40;5.90;;;1.70;;
16979;SDS011;42288;52.182;21.156;2022-07-30T06:24:05;3.90;;;1.53;;
16979;SDS011;42288;52.182;21.156;2022-07-30T06:26:31;2.63;;;1.50;;
16979;SDS011;42288;52.182;21.156;2022-07-30T06:28:57;5.53;;;1.33;;
16979;SDS011;42288;52.182;21.156;2022-07-30T06:31:23;5.80;;;1.60;;
16979;SDS011;42288;52.182;21.156;2022-07-30T06:33:48;4.67;;;1.30;;
16979;SDS011;42288;52.182;21.156;2022-07-30T06:36:14;3.00;;;1.47;;
16979;SDS011;42288;52.182;21.156;2022-07-30T06:38:39;2.93;;;1.50;;
16979;SDS011;42288;52.182;21.156;2022-07-30T06:41:05;5.03;;;1.33;;
16979;SDS011;42288;52.182;21.156;2022-07-30T06:43:31;4.40;;;1.43;;
16979;SDS011;42288;52.182;21.156;2022-07-30T06:45:57;3.67;;;1.33;;
16979;SDS011;42288;52.182;21.156;2022-07-30T06:48:22;3.87;;;1.33;;
16979;SDS011;42288;52.182;21.156;2022-07-30T06:50:48;3.30;;;1.40;;
16979;SDS011;42288;52.182;21.156;2022-07-30T06:53:13;6.37;;;1.40;;
16979;SDS011;42288;52.182;21.156;2022-07-30T06:55:39;5.00;;;1.83;;
16979;SDS011;42288;52.182;21.156;2022-07-30T06:58:04;4.10;;;1.87;;
16979;SDS011;42288;52.182;21.156;2022-07-30T07:00:30;2.57;;;1.60;;
16979;SDS011;42288;52.182;21.156;2022-07-30T07:02:56;5.83;;;1.60;;
16979;SDS011;42288;52.182;21.156;2022-07-30T07:05:21;2.73;;;1.60;;
16979;SDS011;42288;52.182;21.156;2022-07-30T07:07:47;3.23;;;1.63;;
16979;SDS011;42288;52.182;21.156;2022-07-30T07:10:13;4.87;;;1.87;;
16979;SDS011;42288;52.182;21.156;2022-07-30T07:12:38;6.70;;;1.47;;
16979;SDS011;42288;52.182;21.156;2022-07-30T07:15:04;5.20;;;1.70;;
16979;SDS011;42288;52.182;21.156;2022-07-30T07:17:30;4.83;;;1.40;;
16979;SDS011;42288;52.182;21.156;2022-07-30T07:19:56;4.93;;;1.53;;
16979;SDS011;42288;52.182;21.156;2022-07-30T07:22:22;3.33;;;1.53;;
16979;SDS011;42288;52.182;21.156;2022-07-30T07:24:47;3.10;;;1.63;;
16979;SDS011;42288;52.182;21.156;2022-07-30T07:27:13;4.20;;;1.67;;
16979;SDS011;42288;52.182;21.156;2022-07-30T07:29:39;4.93;;;1.80;;
16979;SDS011;42288;52.182;21.156;2022-07-30T07:32:05;5.30;;;1.90;;
16979;SDS011;42288;52.182;21.156;2022-07-30T07:34:30;4.90;;;1.87;;
16979;SDS011;42288;52.182;21.156;2022-07-30T07:36:56;5.07;;;1.63;;
16979;SDS011;42288;52.182;21.156;2022-07-30T07:39:22;2.10;;;1.50;;
16979;SDS011;42288;52.182;21.156;2022-07-30T07:41:47;3.23;;;1.87;;
16979;SDS011;42288;52.182;21.156;2022-07-30T07:44:13;5.33;;;1.60;;
16979;SDS011;42288;52.182;21.156;2022-07-30T07:46:38;4.30;;;1.70;;
16979;SDS011;42288;52.182;21.156;2022-07-30T07:49:04;8.50;;;1.97;;
16979;SDS011;42288;52.182;21.156;2022-07-30T07:51:29;5.27;;;1.73;;
16979;SDS011;42288;52.182;21.156;2022-07-30T07:53:55;2.60;;;1.90;;
16979;SDS011;42288;52.182;21.156;2022-07-30T07:56:20;2.87;;;1.77;;
16979;SDS011;42288;52.182;21.156;2022-07-30T07:58:46;5.10;;;1.60;;
16979;SDS011;42288;52.182;21.156;2022-07-30T08:01:12;5.63;;;1.93;;
16979;SDS011;42288;52.182;21.156;2022-07-30T08:03:38;5.23;;;2.10;;
16979;SDS011;42288;52.182;21.156;2022-07-30T08:06:04;5.77;;;2.00;;
16979;SDS011;42288;52.182;21.156;2022-07-30T08:08:30;4.53;;;1.80;;
16979;SDS011;42288;52.182;21.156;2022-07-30T08:10:55;4.77;;;1.93;;
16979;SDS011;42288;52.182;21.156;2022-07-30T08:13:21;5.50;;;1.90;;
16979;SDS011;42288;52.182;21.156;2022-07-30T08:15:47;4.33;;;1.97;;
16979;SDS011;42288;52.182;21.156;2022-07-30T08:18:13;4.97;;;2.13;;
16979;SDS011;42288;52.182;21.156;2022-07-30T08:20:39;4.63;;;1.98;;
16979;SDS011;42288;52.182;21.156;2022-07-30T08:23:05;3.03;;;1.90;;
16979;SDS011;42288;52.182;21.156;2022-07-30T08:25:32;3.65;;;1.90;;
16979;SDS011;42288;52.182;21.156;2022-07-30T08:27:57;4.50;;;2.00;;
16979;SDS011;42288;52.182;21.156;2022-07-30T08:30:26;5.60;;;1.90;;
16979;SDS011;42288;52.182;21.156;2022-07-30T08:32:52;3.15;;;1.98;;
16979;SDS011;42288;52.182;21.156;2022-07-30T08:35:17;3.47;;;2.17;;
16979;SDS011;42288;52.182;21.156;2022-07-30T08:37:43;6.10;;;2.00;;
16979;SDS011;42288;52.182;21.156;2022-07-30T08:40:08;2.07;;;1.70;;
16979;SDS011;42288;52.182;21.156;2022-07-30T08:42:34;5.15;;;1.90;;
16979;SDS011;42288;52.182;21.156;2022-07-30T08:45:00;4.70;;;2.00;;
16979;SDS011;42288;52.182;21.156;2022-07-30T08:47:32;4.00;;;2.08;;
16979;SDS011;42288;52.182;21.156;2022-07-30T08:49:59;3.97;;;2.07;;
16979;SDS011;42288;52.182;21.156;2022-07-30T08:52:29;4.00;;;2.30;;
16979;SDS011;42288;52.182;21.156;2022-07-30T08:54:57;4.63;;;2.20;;
16979;SDS011;42288;52.182;21.156;2022-07-30T08:57:23;4.23;;;2.10;;
16979;SDS011;42288;52.182;21.156;2022-07-30T08:59:49;4.27;;;1.80;;
16979;SDS011;42288;52.182;21.156;2022-07-30T09:02:16;5.45;;;2.05;;
16979;SDS011;42288;52.182;21.156;2022-07-30T09:04:42;5.60;;;1.70;;
16979;SDS011;42288;52.182;21.156;2022-07-30T09:07:08;2.67;;;1.70;;
16979;SDS011;42288;52.182;21.156;2022-07-30T09:09:33;7.00;;;1.40;;
16979;SDS011;42288;52.182;21.156;2022-07-30T09:11:59;5.27;;;2.00;;
16979;SDS011;42288;52.182;21.156;2022-07-30T09:14:24;9.13;;;2.30;;
16979;SDS011;42288;52.182;21.156;2022-07-30T09:16:54;5.03;;;1.55;;
16979;SDS011;42288;52.182;21.156;2022-07-30T09:19:21;4.53;;;1.80;;
16979;SDS011;42288;52.182;21.156;2022-07-30T09:21:53;4.03;;;2.10;;
16979;SDS011;42288;52.182;21.156;2022-07-30T09:24:23;3.63;;;1.67;;
16979;SDS011;42288;52.182;21.156;2022-07-30T09:26:56;4.40;;;2.00;;
16979;SDS011;42288;52.182;21.156;2022-07-30T09:29:29;3.42;;;2.22;;
16979;SDS011;42288;52.182;21.156;2022-07-30T09:31:57;4.43;;;1.95;;
16979;SDS011;42288;52.182;21.156;2022-07-30T09:36:56;4.05;;;1.70;;
16979;SDS011;42288;52.182;21.156;2022-07-30T09:39:27;4.53;;;1.70;;
16979;SDS011;42288;52.182;21.156;2022-07-30T09:41:53;6.90;;;1.80;;
16979;SDS011;42288;52.182;21.156;2022-07-30T09:44:24;6.87;;;1.90;;
16979;SDS011;42288;52.182;21.156;2022-07-30T09:46:51;4.10;;;1.60;;
16979;SDS011;42288;52.182;21.156;2022-07-30T09:49:17;6.23;;;1.93;;
16979;SDS011;42288;52.182;21.156;2022-07-30T09:51:44;3.67;;;2.00;;
16979;SDS011;42288;52.182;21.156;2022-07-30T09:54:10;8.23;;;2.00;;
16979;SDS011;42288;52.182;21.156;2022-07-30T09:56:36;2.57;;;1.70;;
16979;SDS011;42288;52.182;21.156;2022-07-30T09:59:01;4.47;;;1.90;;
16979;SDS011;42288;52.182;21.156;2022-07-30T10:01:27;4.73;;;1.80;;
16979;SDS011;42288;52.182;21.156;2022-07-30T10:03:53;4.67;;;2.10;;
16979;SDS011;42288;52.182;21.156;2022-07-30T10:06:30;4.20;;;1.90;;
16979;SDS011;42288;52.182;21.156;2022-07-30T10:08:57;11.50;;;2.10;;
16979;SDS011;42288;52.182;21.156;2022-07-30T10:11:23;5.80;;;2.07;;
16979;SDS011;42288;52.182;21.156;2022-07-30T10:13:52;5.00;;;1.87;;
16979;SDS011;42288;52.182;21.156;2022-07-30T10:16:19;5.30;;;2.00;;
16979;SDS011;42288;52.182;21.156;2022-07-30T10:18:45;8.20;;;2.17;;
16979;SDS011;42288;52.182;21.156;2022-07-30T10:21:11;4.50;;;1.73;;
16979;SDS011;42288;52.182;21.156;2022-07-30T10:23:38;2.23;;;1.63;;
16979;SDS011;42288;52.182;21.156;2022-07-30T10:26:04;3.67;;;1.77;;
16979;SDS011;42288;52.182;21.156;2022-07-30T10:28:32;5.47;;;1.83;;
16979;SDS011;42288;52.182;21.156;2022-07-30T10:30:58;4.43;;;2.20;;
16979;SDS011;42288;52.182;21.156;2022-07-30T10:33:25;8.13;;;2.10;;
16979;SDS011;42288;52.182;21.156;2022-07-30T10:35:53;3.33;;;2.03;;
16979;SDS011;42288;52.182;21.156;2022-07-30T10:38:20;4.93;;;2.17;;
16979;SDS011;42288;52.182;21.156;2022-07-30T10:40:49;4.90;;;1.90;;
16979;SDS011;42288;52.182;21.156;2022-07-30T10:43:44;5.90;;;1.80;;
16979;SDS011;42288;52.182;21.156;2022-07-30T10:48:55;2.93;;;1.93;;
16979;SDS011;42288;52.182;21.156;2022-07-30T10:51:43;4.53;;;1.90;;
16979;SDS011;42288;52.182;21.156;2022-07-30T11:02:17;9.30;;;2.77;;
16979;SDS011;42288;52.182;21.156;2022-07-30T11:04:43;5.50;;;2.73;;
16979;SDS011;42288;52.182;21.156;2022-07-30T11:07:24;5.50;;;2.60;;
16979;SDS011;42288;52.182;21.156;2022-07-30T11:09:53;5.83;;;2.90;;
16979;SDS011;42288;52.182;21.156;2022-07-30T11:15:10;4.37;;;2.60;;
16979;SDS011;42288;52.182;21.156;2022-07-30T11:20:25;4.73;;;2.50;;
16979;SDS011;42288;52.182;21.156;2022-07-30T11:22:52;6.60;;;2.37;;
16979;SDS011;42288;52.182;21.156;2022-07-30T11:27:46;5.87;;;2.20;;
16979;SDS011;42288;52.182;21.156;2022-07-30T11:32:39;4.40;;;2.47;;
16979;SDS011;42288;52.182;21.156;2022-07-30T11:37:59;4.77;;;2.70;;
16979;SDS011;42288;52.182;21.156;2022-07-30T11:40:32;7.77;;;2.60;;
16979;SDS011;42288;52.182;21.156;2022-07-30T11:48:39;5.93;;;2.43;;
16979;SDS011;42288;52.182;21.156;2022-07-30T11:51:07;8.60;;;2.50;;
16979;SDS011;42288;52.182;21.156;2022-07-30T11:53:33;3.80;;;2.40;;
16979;SDS011;42288;52.182;21.156;2022-07-30T11:56:00;4.00;;;2.47;;
16979;SDS011;42288;52.182;21.156;2022-07-30T11:58:30;5.40;;;2.53;;
16979;SDS011;42288;52.182;21.156;2022-07-30T12:00:58;7.10;;;3.00;;
16979;SDS011;42288;52.182;21.156;2022-07-30T12:03:44;5.70;;;2.80;;
16979;SDS011;42288;52.182;21.156;2022-07-30T12:06:12;4.50;;;2.67;;
16979;SDS011;42288;52.182;21.156;2022-07-30T12:08:42;3.60;;;2.50;;
16979;SDS011;42288;52.182;21.156;2022-07-30T12:11:09;8.77;;;3.07;;
16979;SDS011;42288;52.182;21.156;2022-07-30T12:13:35;9.20;;;3.30;;
16979;SDS011;42288;52.182;21.156;2022-07-30T12:16:14;5.03;;;3.00;;
16979;SDS011;42288;52.182;21.156;2022-07-30T12:18:41;5.00;;;3.03;;
16979;SDS011;42288;52.182;21.156;2022-07-30T12:21:08;4.13;;;2.50;;
16979;SDS011;42288;52.182;21.156;2022-07-30T12:23:40;8.37;;;3.60;;
16979;SDS011;42288;52.182;21.156;2022-07-30T12:26:07;9.43;;;3.40;;
16979;SDS011;42288;52.182;21.156;2022-07-30T12:28:43;5.20;;;2.70;;
16979;SDS011;42288;52.182;21.156;2022-07-30T12:31:09;10.33;;;2.80;;
16979;SDS011;42288;52.182;21.156;2022-07-30T12:33:39;4.67;;;2.63;;
16979;SDS011;42288;52.182;21.156;2022-07-30T12:36:05;3.80;;;2.73;;
16979;SDS011;42288;52.182;21.156;2022-07-30T12:38:41;6.70;;;3.00;;
16979;SDS011;42288;52.182;21.156;2022-07-30T12:41:09;13.47;;;3.30;;
16979;SDS011;42288;52.182;21.156;2022-07-30T12:43:53;7.23;;;3.50;;
16979;SDS011;42288;52.182;21.156;2022-07-30T12:48:47;7.47;;;3.40;;
16979;SDS011;42288;52.182;21.156;2022-07-30T12:51:13;7.53;;;3.57;;
16979;SDS011;42288;52.182;21.156;2022-07-30T12:53:39;6.60;;;3.33;;
16979;SDS011;42288;52.182;21.156;2022-07-30T12:56:14;8.20;;;2.90;;
16979;SDS011;42288;52.182;21.156;2022-07-30T12:58:44;5.80;;;2.63;;
16979;SDS011;42288;52.182;21.156;2022-07-30T13:01:10;3.77;;;2.80;;
16979;SDS011;42288;52.182;21.156;2022-07-30T13:03:36;6.50;;;2.90;;
16979;SDS011;42288;52.182;21.156;2022-07-30T13:06:24;6.47;;;2.73;;
16979;SDS011;42288;52.182;21.156;2022-07-30T13:08:50;6.97;;;2.97;;
16979;SDS011;42288;52.182;21.156;2022-07-30T13:11:21;5.03;;;2.70;;
16979;SDS011;42288;52.182;21.156;2022-07-30T13:13:50;4.20;;;2.77;;
16979;SDS011;42288;52.182;21.156;2022-07-30T13:16:17;4.73;;;3.03;;
16979;SDS011;42288;52.182;21.156;2022-07-30T13:18:44;6.03;;;2.80;;
16979;SDS011;42288;52.182;21.156;2022-07-30T13:21:10;4.13;;;2.87;;
16979;SDS011;42288;52.182;21.156;2022-07-30T13:23:36;5.13;;;2.70;;
16979;SDS011;42288;52.182;21.156;2022-07-30T13:26:03;5.13;;;2.63;;
16979;SDS011;42288;52.182;21.156;2022-07-30T13:28:31;5.80;;;2.77;;
16979;SDS011;42288;52.182;21.156;2022-07-30T13:30:57;6.73;;;2.80;;
16979;SDS011;42288;52.182;21.156;2022-07-30T13:33:23;11.70;;;3.30;;
16979;SDS011;42288;52.182;21.156;2022-07-30T13:35:49;5.50;;;3.27;;
16979;SDS011;42288;52.182;21.156;2022-07-30T13:38:14;6.17;;;3.27;;
16979;SDS011;42288;52.182;21.156;2022-07-30T13:40:40;5.27;;;3.13;;
16979;SDS011;42288;52.182;21.156;2022-07-30T13:43:06;5.40;;;3.00;;
16979;SDS011;42288;52.182;21.156;2022-07-30T13:45:32;4.97;;;3.33;;
16979;SDS011;42288;52.182;21.156;2022-07-30T13:47:58;6.40;;;3.63;;
16979;SDS011;42288;52.182;21.156;2022-07-30T13:50:24;4.37;;;3.43;;
16979;SDS011;42288;52.182;21.156;2022-07-30T13:52:49;6.00;;;3.83;;
16979;SDS011;42288;52.182;21.156;2022-07-30T13:55:15;7.47;;;3.57;;
16979;SDS011;42288;52.182;21.156;2022-07-30T13:57:41;6.30;;;3.97;;
16979;SDS011;42288;52.182;21.156;2022-07-30T14:00:07;8.23;;;3.60;;
16979;SDS011;42288;52.182;21.156;2022-07-30T14:02:33;11.77;;;3.47;;
16979;SDS011;42288;52.182;21.156;2022-07-30T14:04:59;5.30;;;2.97;;
16979;SDS011;42288;52.182;21.156;2022-07-30T14:07:31;6.80;;;3.30;;
16979;SDS011;42288;52.182;21.156;2022-07-30T14:09:57;7.73;;;3.60;;
16979;SDS011;42288;52.182;21.156;2022-07-30T14:12:23;6.47;;;3.10;;
16979;SDS011;42288;52.182;21.156;2022-07-30T14:14:48;9.10;;;3.00;;
16979;SDS011;42288;52.182;21.156;2022-07-30T14:17:14;4.20;;;3.33;;
16979;SDS011;42288;52.182;21.156;2022-07-30T14:19:39;12.27;;;3.30;;
16979;SDS011;42288;52.182;21.156;2022-07-30T14:22:05;4.37;;;3.07;;
16979;SDS011;42288;52.182;21.156;2022-07-30T14:24:30;9.97;;;3.10;;
16979;SDS011;42288;52.182;21.156;2022-07-30T14:26:56;6.10;;;3.07;;
16979;SDS011;42288;52.182;21.156;2022-07-30T14:29:21;5.50;;;2.87;;
16979;SDS011;42288;52.182;21.156;2022-07-30T14:31:47;7.13;;;2.77;;
16979;SDS011;42288;52.182;21.156;2022-07-30T14:34:12;6.20;;;2.93;;
16979;SDS011;42288;52.182;21.156;2022-07-30T14:36:38;4.97;;;3.00;;
16979;SDS011;42288;52.182;21.156;2022-07-30T14:39:04;4.90;;;2.70;;
16979;SDS011;42288;52.182;21.156;2022-07-30T14:41:29;5.57;;;2.47;;
16979;SDS011;42288;52.182;21.156;2022-07-30T14:43:55;4.13;;;2.60;;
16979;SDS011;42288;52.182;21.156;2022-07-30T14:46:21;4.07;;;2.30;;
16979;SDS011;42288;52.182;21.156;2022-07-30T14:48:47;5.20;;;2.40;;
16979;SDS011;42288;52.182;21.156;2022-07-30T14:51:13;4.90;;;2.70;;
16979;SDS011;42288;52.182;21.156;2022-07-30T14:53:39;4.40;;;2.63;;
16979;SDS011;42288;52.182;21.156;2022-07-30T14:56:05;8.70;;;3.27;;
16979;SDS011;42288;52.182;21.156;2022-07-30T14:58:31;3.97;;;2.30;;
16979;SDS011;42288;52.182;21.156;2022-07-30T15:00:56;3.30;;;2.60;;
16979;SDS011;42288;52.182;21.156;2022-07-30T15:03:22;6.17;;;2.63;;
16979;SDS011;42288;52.182;21.156;2022-07-30T15:05:48;8.70;;;2.37;;
16979;SDS011;42288;52.182;21.156;2022-07-30T15:08:13;6.80;;;2.60;;